Time;durP1;ratioP1;P1;durP2;ratioP2;P2;SDS_P1;SDS_P2;PMS_P1;PMS_P2;Temp;Humidity;BMP_temperature;BMP_pressure;BME280_temperature;BME280_humidity;BME280_pressure;Samples;Min_cycle;Max_cycle;Signal;HPM_P1;HPM_P2
2022/09/07 00:01:38;;;;;;;;;;;;;;;21.34;80.80;97453.39;586036;242;65126;-74
2022/09/07 00:04:06;;;;;;;;;;;;;;;21.35;80.82;97444.30;586021;242;67124;-74
2022/09/07 00:06:34;;;;;;;;;;;;;;;21.34;80.79;97440.02;586053;242;63059;-74
2022/09/07 00:09:03;;;;;;;;;;;;;;;21.34;80.86;97440.02;586035;242;67250;-74
2022/09/07 00:11:30;;;;;;;;;;;;;;;21.35;80.87;97446.16;586001;242;67203;-74
2022/09/07 00:13:58;;;;;;;;;;;;;;;21.35;80.92;97446.97;586034;239;63030;-74
2022/09/07 00:16:27;;;;;;;;;;;;;;;21.34;80.86;97439.22;586005;242;67419;-74
2022/09/07 00:18:55;;;;;;;;;;;;;;;21.34;80.89;97442.70;586116;242;67231;-74
2022/09/07 00:21:23;;;;;;;;;;;;;;;21.34;80.89;97442.70;585979;242;63053;-74
2022/09/07 00:23:51;;;;;;;;;;;;;;;21.34;80.83;97442.70;586027;242;67252;-74
2022/09/07 00:26:21;;;;;;;;;;;;;;;21.34;80.84;97450.72;586009;242;67194;-74
2022/09/07 00:28:48;;;;;;;;;;;;;;;21.33;80.83;97446.41;585712;242;65211;-74
2022/09/07 00:31:17;;;;;;;;;;;;;;;21.34;80.79;97440.02;586048;242;67310;-74
2022/09/07 00:33:46;;;;;;;;;;;;;;;21.34;80.78;97445.37;586092;242;64787;-72
2022/09/07 00:36:14;;;;;;;;;;;;;;;21.34;80.88;97450.72;586029;242;63839;-72
2022/09/07 00:38:44;;;;;;;;;;;;;;;21.34;80.86;97448.05;586015;242;67327;-72
2022/09/07 00:41:11;;;;;;;;;;;;;;;21.34;80.87;97450.72;585973;242;65488;-72
2022/09/07 00:43:40;;;;;;;;;;;;;;;21.34;80.91;97453.39;586067;242;65130;-72
2022/09/07 00:46:09;;;;;;;;;;;;;;;21.34;80.92;97448.05;586023;242;67260;-72
2022/09/07 00:48:42;;;;;;;;;;;;;;;21.34;80.87;97442.70;585876;242;65055;-72
2022/09/07 00:51:11;;;;;;;;;;;;;;;21.34;80.92;97453.39;585622;242;62995;-72
2022/09/07 00:53:41;;;;;;;;;;;;;;;21.34;80.96;97447.24;585976;242;67406;-72
2022/09/07 00:56:09;;;;;;;;;;;;;;;21.34;80.93;97450.72;585653;242;65265;-72
2022/09/07 00:58:38;;;;;;;;;;;;;;;21.34;80.92;97439.22;586071;242;65088;-72
2022/09/07 01:01:06;;;;;;;;;;;;;;;21.34;80.93;97442.70;586003;242;66914;-72
2022/09/07 01:03:35;;;;;;;;;;;;;;;21.34;80.90;97433.88;585990;242;67187;-72
2022/09/07 01:06:05;;;;;;;;;;;;;;;21.34;80.94;97436.55;585938;242;65088;-72
2022/09/07 01:08:34;;;;;;;;;;;;;;;21.33;80.92;97430.38;586023;242;66237;-72
2022/09/07 01:11:02;;;;;;;;;;;;;;;21.33;80.92;97425.03;586055;242;65824;-72
2022/09/07 01:13:30;;;;;;;;;;;;;;;21.34;80.92;97428.53;586009;242;65079;-72
2022/09/07 01:16:16;;;;;;;;;;;;;;;21.34;80.98;97423.98;586005;242;65184;-72
2022/09/07 01:18:45;;;;;;;;;;;;;;;21.34;80.94;97431.20;586130;242;67153;-72
2022/09/07 01:21:14;;;;;;;;;;;;;;;21.33;80.95;97425.03;585968;242;65074;-72
2022/09/07 01:23:59;;;;;;;;;;;;;;;21.33;80.88;97430.38;585856;242;65112;-72
2022/09/07 01:26:32;;;;;;;;;;;;;;;21.33;80.92;97430.38;586053;242;64911;-72
2022/09/07 01:29:01;;;;;;;;;;;;;;;21.32;80.94;97423.43;586061;242;62984;-72
2022/09/07 01:31:40;;;;;;;;;;;;;;;21.33;80.91;97424.23;585073;242;67319;-72
2022/09/07 01:34:16;;;;;;;;;;;;;;;21.33;80.94;97425.03;586024;242;67113;-72
2022/09/07 01:36:57;;;;;;;;;;;;;;;21.32;80.98;97418.09;585993;242;65095;-72
2022/09/07 01:39:37;;;;;;;;;;;;;;;21.32;80.97;97420.76;586055;242;47961;-72
2022/09/07 01:42:06;;;;;;;;;;;;;;;21.32;80.98;97425.31;585754;242;65177;-72
2022/09/07 01:44:41;;;;;;;;;;;;;;;21.32;81.00;97423.43;586136;242;65000;-74
2022/09/07 01:47:10;;;;;;;;;;;;;;;21.33;80.99;97416.21;586113;242;70920;-72
2022/09/07 01:49:51;;;;;;;;;;;;;;;21.33;80.96;97421.56;585998;242;67025;-72
2022/09/07 01:52:33;;;;;;;;;;;;;;;21.32;80.97;97418.09;585947;242;63227;-72
2022/09/07 01:55:05;;;;;;;;;;;;;;;21.32;81.03;97407.39;586037;242;65088;-72
2022/09/07 01:57:40;;;;;;;;;;;;;;;21.32;81.01;97404.72;585811;242;67594;-72
2022/09/07 02:00:09;;;;;;;;;;;;;;;21.32;80.99;97399.38;586020;242;66086;-72
2022/09/07 02:02:56;;;;;;;;;;;;;;;21.32;81.04;97398.58;586315;242;38095;-74
2022/09/07 02:05:28;;;;;;;;;;;;;;;21.31;81.03;97400.45;586343;242;65089;-71
2022/09/07 02:08:01;;;;;;;;;;;;;;;21.32;81.04;97403.92;586024;242;65294;-74
2022/09/07 02:10:30;;;;;;;;;;;;;;;21.32;81.07;97401.25;584108;242;64919;-74
2022/09/07 02:12:59;;;;;;;;;;;;;;;21.32;81.06;97395.91;585890;242;67142;-74
2022/09/07 02:15:28;;;;;;;;;;;;;;;21.32;81.04;97402.05;586024;242;63930;-74
2022/09/07 02:17:57;;;;;;;;;;;;;;;21.31;81.07;97405.80;586139;242;64722;-71
2022/09/07 02:20:26;;;;;;;;;;;;;;;21.32;81.10;97403.92;585954;242;67202;-71
2022/09/07 02:22:56;;;;;;;;;;;;;;;21.32;81.13;97401.25;583242;242;63020;-71
2022/09/07 02:25:27;;;;;;;;;;;;;;;21.30;81.14;97401.50;582599;243;67635;-71
2022/09/07 02:27:57;;;;;;;;;;;;;;;21.31;81.15;97405.80;582567;243;67035;-71
2022/09/07 02:30:25;;;;;;;;;;;;;;;21.31;81.14;97403.13;582347;243;65150;-71
2022/09/07 02:32:52;;;;;;;;;;;;;;;21.31;81.16;97408.47;582739;243;65068;-71
2022/09/07 02:35:20;;;;;;;;;;;;;;;21.31;81.17;97408.47;582553;243;67259;-71
2022/09/07 02:37:48;;;;;;;;;;;;;;;21.31;81.17;97410.31;582588;243;63031;-71
2022/09/07 02:40:16;;;;;;;;;;;;;;;21.31;81.15;97411.14;582600;243;67347;-71
2022/09/07 02:42:45;;;;;;;;;;;;;;;21.31;81.16;97411.14;582618;243;67099;-71
2022/09/07 02:45:13;;;;;;;;;;;;;;;21.30;81.18;97409.52;582738;243;65147;-74
2022/09/07 02:47:42;;;;;;;;;;;;;;;21.31;81.15;97411.14;582724;243;65074;-74
2022/09/07 02:50:19;;;;;;;;;;;;;;;21.30;81.15;97404.17;582725;243;46678;-74
2022/09/07 02:53:01;;;;;;;;;;;;;;;21.31;81.18;97407.64;582319;243;63013;-73
2022/09/07 02:55:33;;;;;;;;;;;;;;;21.31;81.16;97399.63;582580;243;64906;-74
2022/09/07 02:58:13;;;;;;;;;;;;;;;21.31;81.16;97402.30;582532;242;67241;-74
2022/09/07 03:00:39;;;;;;;;;;;;;;;21.29;81.20;97398.03;582601;239;65045;-71
2022/09/07 03:03:08;;;;;;;;;;;;;;;21.29;81.15;97394.56;582615;242;67224;-72
2022/09/07 03:05:37;;;;;;;;;;;;;;;21.29;81.16;97392.69;578978;243;64329;-72
2022/09/07 03:08:07;;;;;;;;;;;;;;;21.30;81.15;97398.83;582553;243;65148;-71
2022/09/07 03:10:36;;;;;;;;;;;;;;;21.31;81.17;97399.63;582590;243;66918;-71
2022/09/07 03:13:03;;;;;;;;;;;;;;;21.30;81.15;97404.17;582616;243;65136;-71
2022/09/07 03:15:31;;;;;;;;;;;;;;;21.30;81.17;97404.17;582771;243;65052;-74
2022/09/07 03:17:58;;;;;;;;;;;;;;;21.29;81.19;97406.05;582768;243;67094;-73
2022/09/07 03:20:26;;;;;;;;;;;;;;;21.30;81.21;97401.50;582716;243;66929;-72
2022/09/07 03:22:54;;;;;;;;;;;;;;;21.29;81.19;97405.25;585224;242;62899;-71
2022/09/07 03:25:22;;;;;;;;;;;;;;;21.29;81.20;97403.38;586069;242;66967;-72
2022/09/07 03:27:49;;;;;;;;;;;;;;;21.29;81.17;97399.91;586030;242;65079;-71
2022/09/07 03:30:17;;;;;;;;;;;;;;;21.29;81.17;97408.72;586039;242;65162;-71
2022/09/07 03:32:44;;;;;;;;;;;;;;;21.29;81.20;97410.59;586173;242;65883;-74
2022/09/07 03:35:12;;;;;;;;;;;;;;;21.28;81.22;97412.47;586199;242;67100;-74
2022/09/07 03:37:40;;;;;;;;;;;;;;;21.29;81.20;97419.41;586047;242;63000;-73
2022/09/07 03:40:08;;;;;;;;;;;;;;;21.29;81.19;97421.29;586001;242;67529;-74
2022/09/07 03:42:36;;;;;;;;;;;;;;;21.29;81.14;97423.97;586001;242;65025;-71
2022/09/07 03:45:05;;;;;;;;;;;;;;;21.29;81.13;97423.97;586206;242;65098;-74
2022/09/07 03:47:36;;;;;;;;;;;;;;;21.28;81.17;97425.04;586043;242;64933;-74
2022/09/07 03:50:06;;;;;;;;;;;;;;;21.28;81.14;97425.84;585688;242;48063;-74
2022/09/07 03:52:34;;;;;;;;;;;;;;;21.28;81.19;97427.72;586047;242;63050;-74
2022/09/07 03:55:02;;;;;;;;;;;;;;;21.28;81.17;97430.39;586056;242;67272;-74
2022/09/07 03:57:30;;;;;;;;;;;;;;;21.28;81.19;97428.52;586017;242;67115;-74
2022/09/07 03:59:57;;;;;;;;;;;;;;;21.28;81.20;97436.53;586387;242;65053;-74
2022/09/07 04:02:25;;;;;;;;;;;;;;;21.28;81.19;97428.52;585986;242;67299;-73
2022/09/07 04:04:52;;;;;;;;;;;;;;;21.27;81.21;97432.23;586037;242;64853;-74
2022/09/07 04:07:20;;;;;;;;;;;;;;;21.27;81.23;97437.58;586073;242;65194;-74
2022/09/07 04:09:50;;;;;;;;;;;;;;;21.29;81.24;97440.00;586229;242;65161;-74
2022/09/07 04:12:17;;;;;;;;;;;;;;;21.28;81.22;97436.53;586075;242;67053;-74
2022/09/07 04:14:45;;;;;;;;;;;;;;;21.27;81.27;97442.13;586014;242;65171;-74
2022/09/07 04:17:12;;;;;;;;;;;;;;;21.28;81.28;97439.20;586033;242;67246;-74
2022/09/07 04:19:40;;;;;;;;;;;;;;;21.28;81.28;97443.75;586198;242;66850;-71
2022/09/07 04:22:08;;;;;;;;;;;;;;;21.27;81.27;97447.47;586088;242;63805;-71
2022/09/07 04:24:35;;;;;;;;;;;;;;;21.27;81.27;97442.92;586010;242;67271;-72
2022/09/07 04:27:03;;;;;;;;;;;;;;;21.28;81.23;97449.09;585984;242;65375;-71
2022/09/07 04:29:31;;;;;;;;;;;;;;;21.27;81.27;97448.27;586013;242;65113;-71
2022/09/07 04:31:58;;;;;;;;;;;;;;;21.27;81.26;97442.13;586061;242;65096;-71
2022/09/07 04:34:26;;;;;;;;;;;;;;;21.27;81.25;97450.94;586015;242;67180;-71
2022/09/07 04:36:53;;;;;;;;;;;;;;;21.27;81.29;97456.29;586018;242;63029;-72
2022/09/07 04:39:21;;;;;;;;;;;;;;;21.26;81.30;97454.69;586016;242;67348;-72
2022/09/07 04:41:49;;;;;;;;;;;;;;;21.27;81.25;97455.49;586015;242;65053;-71
2022/09/07 04:44:16;;;;;;;;;;;;;;;21.27;81.27;97460.84;586083;242;65227;-71
2022/09/07 04:46:44;;;;;;;;;;;;;;;21.26;81.31;97461.91;585998;239;64784;-71
2022/09/07 04:49:12;;;;;;;;;;;;;;;21.26;81.28;97462.71;586017;242;65017;-71
2022/09/07 04:51:45;;;;;;;;;;;;;;;21.25;81.25;97453.09;585993;242;63862;-74
2022/09/07 04:54:10;;;;;;;;;;;;;;;21.26;81.27;97459.24;584380;233;65529;-71
2022/09/07 04:56:37;;;;;;;;;;;;;;;21.25;81.25;97455.77;586063;242;65009;-71
2022/09/07 04:59:05;;;;;;;;;;;;;;;21.25;81.23;97463.79;585996;242;65168;-70
2022/09/07 05:01:33;;;;;;;;;;;;;;;21.26;81.24;97459.24;586001;242;65086;-71
2022/09/07 05:04:01;;;;;;;;;;;;;;;21.25;81.22;97461.11;586039;242;66945;-71
2022/09/07 05:06:29;;;;;;;;;;;;;;;21.25;81.22;97461.11;586014;242;65174;-71
2022/09/07 05:08:57;;;;;;;;;;;;;;;21.25;81.24;97457.61;585521;233;67268;-71
2022/09/07 05:11:26;;;;;;;;;;;;;;;21.25;81.23;97461.11;586292;242;67066;-71
2022/09/07 05:13:55;;;;;;;;;;;;;;;21.25;81.27;97460.29;585977;242;63178;-71
2022/09/07 05:16:23;;;;;;;;;;;;;;;21.25;81.24;97452.27;585989;242;67265;-71
2022/09/07 05:18:52;;;;;;;;;;;;;;;21.25;81.28;97457.61;585994;239;67090;-71
2022/09/07 05:21:21;;;;;;;;;;;;;;;21.25;81.31;97452.27;586010;242;65164;-71
2022/09/07 05:23:50;;;;;;;;;;;;;;;21.25;81.26;97454.94;585769;242;67348;-73
2022/09/07 05:26:18;;;;;;;;;;;;;;;21.24;81.21;97456.02;585978;242;67148;-71
2022/09/07 05:28:46;;;;;;;;;;;;;;;21.24;81.29;97456.81;586016;242;62919;-71
2022/09/07 05:31:15;;;;;;;;;;;;;;;21.25;81.29;97457.61;586021;242;67358;-71
2022/09/07 05:33:47;;;;;;;;;;;;;;;21.24;81.29;97458.69;586011;239;66948;-72
2022/09/07 05:36:15;;;;;;;;;;;;;;;21.24;81.36;97462.16;586061;242;65156;-71
2022/09/07 05:38:42;;;;;;;;;;;;;;;21.24;81.29;97464.04;585982;242;67283;-71
2022/09/07 05:41:10;;;;;;;;;;;;;;;21.24;81.30;97459.48;585993;242;67363;-71
2022/09/07 05:43:45;;;;;;;;;;;;;;;21.24;81.25;97458.69;585994;242;63008;-71
2022/09/07 05:46:15;;;;;;;;;;;;;;;21.24;81.30;97461.36;585846;239;65139;-71
2022/09/07 05:48:43;;;;;;;;;;;;;;;21.24;81.31;97458.69;586042;242;67149;-71
2022/09/07 05:51:12;;;;;;;;;;;;;;;21.24;81.35;97453.34;586032;242;65101;-71
2022/09/07 05:53:41;;;;;;;;;;;;;;;21.24;81.31;97456.02;585987;242;67277;-71
2022/09/07 05:56:09;;;;;;;;;;;;;;;21.24;81.31;97456.02;586011;242;67198;-71
2022/09/07 05:58:37;;;;;;;;;;;;;;;21.24;81.36;97448.00;586000;242;63011;-72
2022/09/07 06:01:09;;;;;;;;;;;;;;;21.23;81.30;97449.88;585717;242;67067;-70
2022/09/07 06:03:37;;;;;;;;;;;;;;;21.24;81.35;97448.00;583331;233;65061;-69
2022/09/07 06:08:52;;;;;;;;;;;;;;;21.22;81.24;97442.10;570589;248;64670;-71
2022/09/07 06:11:21;;;;;;;;;;;;;;;21.22;81.09;97445.58;570558;248;67155;-68
2022/09/07 06:13:49;;;;;;;;;;;;;;;21.21;80.98;97438.63;582539;232;65070;-67
2022/09/07 06:16:17;;;;;;;;;;;;;;;21.20;80.08;97439.70;591205;240;67265;-70
2022/09/07 06:19:05;;;;;;;;;;;;;;;21.20;80.16;97447.73;592502;231;65226;-72
2022/09/07 06:21:34;;;;;;;;;;;;;;;21.21;80.16;97443.98;591189;231;63095;-71
2022/09/07 06:24:01;;;;;;;;;;;;;;;21.20;80.12;97437.03;593824;232;67299;-71
2022/09/07 06:29:11;;;;;;;;;;;;;;;21.21;79.82;97445.85;586469;231;38022;-71
2022/09/07 06:31:38;;;;;;;;;;;;;;;21.22;79.71;97440.23;582553;243;67439;-72
2022/09/07 06:36:51;;;;;;;;;;;;;;;21.21;79.49;97430.61;582696;243;37689;-72
2022/09/07 06:39:19;;;;;;;;;;;;;;;21.22;79.51;97429.53;581480;235;67243;-71
2022/09/07 06:41:47;;;;;;;;;;;;;;;21.23;79.45;97422.34;582563;234;67131;-72
2022/09/07 06:44:16;;;;;;;;;;;;;;;21.23;79.44;97423.14;586061;242;45993;-70
2022/09/07 06:46:44;;;;;;;;;;;;;;;21.24;79.44;97423.94;586132;242;67324;-72
2022/09/07 06:49:11;;;;;;;;;;;;;;;21.23;79.19;97420.47;584824;234;66848;-69
2022/09/07 06:51:39;;;;;;;;;;;;;;;21.24;79.00;97418.59;585987;242;62925;-68
2022/09/07 06:54:06;;;;;;;;;;;;;;;21.24;78.20;97423.94;585983;242;67375;-71
2022/09/07 06:56:35;;;;;;;;;;;;;;;21.25;79.43;97423.70;585966;242;67408;-68
2022/09/07 06:59:02;;;;;;;;;;;;;;;21.25;79.55;97421.02;585576;235;65098;-73
2022/09/07 07:01:32;;;;;;;;;;;;;;;21.25;79.51;97420.19;586016;242;65236;-73
2022/09/07 07:04:00;;;;;;;;;;;;;;;21.25;79.76;97409.50;582600;234;67081;-74
2022/09/07 07:06:35;;;;;;;;;;;;;;;21.25;79.88;97418.34;584277;243;65072;-73
2022/09/07 07:09:04;;;;;;;;;;;;;;;21.25;79.95;97418.34;584339;236;67273;-75
2022/09/07 07:11:31;;;;;;;;;;;;;;;21.27;80.11;97423.41;584413;243;66984;-68
2022/09/07 07:13:59;;;;;;;;;;;;;;;21.26;80.05;97421.82;579839;235;63040;-71
2022/09/07 07:16:27;;;;;;;;;;;;;;;21.27;80.15;97426.09;569739;249;66663;-71
2022/09/07 07:18:55;;;;;;;;;;;;;;;21.27;80.19;97421.53;569727;249;64893;-71
2022/09/07 07:21:23;;;;;;;;;;;;;;;21.26;80.12;97421.82;569727;249;65137;-71
2022/09/07 07:23:58;;;;;;;;;;;;;;;21.27;80.27;97426.09;574956;233;64957;31
2022/09/07 07:26:26;;;;;;;;;;;;;;;21.28;80.13;97430.39;579780;245;66311;-70
2022/09/07 07:28:54;;;;;;;;;;;;;;;21.27;80.19;97421.53;579797;241;65002;-69
2022/09/07 07:31:23;;;;;;;;;;;;;;;21.28;80.13;97425.04;581769;234;67017;-68
2022/09/07 07:33:51;;;;;;;;;;;;;;;21.28;80.16;97422.37;582593;243;66871;-68
2022/09/07 07:36:20;;;;;;;;;;;;;;;21.27;80.10;97424.21;583947;235;63028;-67
2022/09/07 07:38:49;;;;;;;;;;;;;;;21.28;80.12;97417.02;586028;239;67183;-68
2022/09/07 07:41:18;;;;;;;;;;;;;;;21.27;80.06;97416.19;591824;239;67062;-68
2022/09/07 07:43:46;;;;;;;;;;;;;;;21.28;79.95;97415.14;592377;239;63006;-67
2022/09/07 07:46:14;;;;;;;;;;;;;;;21.27;79.92;97408.17;592455;239;67345;-66
2022/09/07 07:48:42;;;;;;;;;;;;;;;21.28;79.70;97411.67;592353;239;66928;-66
2022/09/07 07:51:12;;;;;;;;;;;;;;;21.28;79.66;97409.80;592340;239;63010;-71
2022/09/07 07:53:41;;;;;;;;;;;;;;;21.27;79.51;97410.84;592379;239;67239;-68
2022/09/07 07:56:11;;;;;;;;;;;;;;;21.28;79.41;97406.33;592374;239;46823;-66
2022/09/07 07:58:39;;;;;;;;;;;;;;;21.28;79.33;97412.47;590737;239;64968;-66
2022/09/07 08:01:09;;;;;;;;;;;;;;;21.28;79.29;97411.67;586000;242;67215;-66
2022/09/07 08:03:37;;;;;;;;;;;;;;;21.28;79.36;97406.33;585919;242;64776;-65
2022/09/07 08:06:10;;;;;;;;;;;;;;;21.28;79.33;97403.66;586007;242;65115;-68
2022/09/07 08:08:37;;;;;;;;;;;;;;;21.29;79.30;97405.25;586013;242;67269;-65
2022/09/07 08:11:07;;;;;;;;;;;;;;;21.29;79.21;97391.88;587738;239;65388;-65
2022/09/07 08:13:35;;;;;;;;;;;;;;;21.29;79.25;97402.58;589401;239;63009;-65
2022/09/07 08:16:04;;;;;;;;;;;;;;;21.29;79.29;97397.23;588075;239;67306;-65
2022/09/07 08:18:34;;;;;;;;;;;;;;;21.29;79.20;97395.36;589003;239;65132;-65
2022/09/07 08:21:05;;;;;;;;;;;;;;;21.29;79.08;97400.70;589498;239;65188;-65
2022/09/07 08:23:33;;;;;;;;;;;;;;;21.29;79.10;97405.25;586861;239;67300;-65
2022/09/07 08:26:00;;;;;;;;;;;;;;;21.29;79.04;97402.58;586031;242;65036;-66
2022/09/07 08:28:28;;;;;;;;;;;;;;;21.29;79.05;97394.56;586007;242;65072;-65
2022/09/07 08:30:56;;;;;;;;;;;;;;;21.29;79.05;97397.23;586031;242;64776;-65
2022/09/07 08:33:24;;;;;;;;;;;;;;;21.29;79.10;97400.70;586047;242;67081;-66
2022/09/07 08:35:56;;;;;;;;;;;;;;;21.29;79.15;97398.03;584373;242;65081;-66
2022/09/07 08:38:26;;;;;;;;;;;;;;;21.30;79.12;97393.48;582442;242;67454;-66
2022/09/07 08:40:53;;;;;;;;;;;;;;;21.28;79.11;97393.76;582711;243;67133;-67
2022/09/07 08:43:29;;;;;;;;;;;;;;;21.28;79.00;97393.76;582575;243;63020;-66
2022/09/07 08:45:59;;;;;;;;;;;;;;;21.29;79.00;97389.21;582165;242;67136;-65
2022/09/07 08:48:30;;;;;;;;;;;;;;;21.29;78.86;97392.69;582598;243;65256;-67
2022/09/07 08:50:59;;;;;;;;;;;;;;;21.29;78.80;97394.56;582585;243;65052;-66
2022/09/07 08:53:28;;;;;;;;;;;;;;;21.29;78.70;97387.34;582526;243;65132;-65
2022/09/07 08:55:57;;;;;;;;;;;;;;;21.30;78.74;97385.45;582590;243;67062;-66
2022/09/07 08:58:30;;;;;;;;;;;;;;;21.30;78.75;97382.78;582515;242;62982;-67
2022/09/07 09:00:57;;;;;;;;;;;;;;;21.30;78.81;97382.78;582323;242;67204;-67
2022/09/07 09:03:26;;;;;;;;;;;;;;;21.29;78.86;97378.52;582616;243;63872;-66
2022/09/07 09:06:12;;;;;;;;;;;;;;;21.31;78.86;97383.58;582568;243;63026;-66
2022/09/07 09:08:45;;;;;;;;;;;;;;;21.31;78.90;97378.23;582592;242;46241;-68
2022/09/07 09:11:31;;;;;;;;;;;;;;;21.31;78.92;97372.89;582585;243;65020;-66
2022/09/07 09:14:03;;;;;;;;;;;;;;;21.29;78.89;97375.84;581825;242;65229;-64
2022/09/07 09:16:35;;;;;;;;;;;;;;;21.29;78.89;97362.48;582526;239;67229;-63
2022/09/07 09:19:14;;;;;;;;;;;;;;;21.31;78.90;97359.53;582596;243;67003;-66
2022/09/07 09:21:43;;;;;;;;;;;;;;;21.29;78.87;97355.26;582049;242;65275;-66
2022/09/07 09:24:12;;;;;;;;;;;;;;;21.29;78.87;97357.13;582551;243;65116;-67
2022/09/07 09:26:40;;;;;;;;;;;;;;;21.29;78.65;97349.91;582554;243;67389;-67
2022/09/07 09:29:14;;;;;;;;;;;;;;;21.30;78.68;97345.36;582595;243;63032;-66
2022/09/07 09:31:42;;;;;;;;;;;;;;;21.31;78.59;97346.16;582589;243;67286;-66
2022/09/07 09:34:14;;;;;;;;;;;;;;;21.30;78.57;97348.03;582570;243;67030;-66
2022/09/07 09:36:46;;;;;;;;;;;;;;;21.30;78.58;97350.70;582574;242;63180;-66
2022/09/07 09:39:33;;;;;;;;;;;;;;;21.30;78.58;97350.70;582582;243;67334;-65
2022/09/07 09:42:11;;;;;;;;;;;;;;;21.29;78.64;97355.26;582540;243;65045;-66
2022/09/07 09:44:39;;;;;;;;;;;;;;;21.30;78.55;97348.03;582618;241;65430;-65
2022/09/07 09:47:06;;;;;;;;;;;;;;;21.30;78.44;97350.70;585852;241;67147;-66
2022/09/07 09:49:38;;;;;;;;;;;;;;;21.30;78.49;97340.02;588932;241;67053;-66
2022/09/07 09:52:07;;;;;;;;;;;;;;;21.30;78.94;97340.02;588912;241;62978;-66
2022/09/07 09:54:38;;;;;;;;;;;;;;;21.31;78.90;97338.14;588636;239;67290;-64
2022/09/07 09:57:06;;;;;;;;;;;;;;;21.29;78.87;97333.87;588877;241;67084;-67
2022/09/07 09:59:35;;;;;;;;;;;;;;;21.29;78.84;97339.22;588946;241;65038;-68
2022/09/07 10:02:04;;;;;;;;;;;;;;;21.30;78.79;97334.67;588879;241;65304;-66
2022/09/07 10:04:33;;;;;;;;;;;;;;;21.30;78.96;97331.99;584659;241;64922;-67
2022/09/07 10:07:08;;;;;;;;;;;;;;;21.30;78.73;97329.32;588888;241;65047;-66
2022/09/07 10:09:41;;;;;;;;;;;;;;;21.29;78.95;97333.08;586528;239;65176;-66
2022/09/07 10:12:10;;;;;;;;;;;;;;;21.30;78.78;97331.99;587452;241;67034;-68
2022/09/07 10:14:44;;;;;;;;;;;;;;;21.31;79.01;97330.12;585489;241;65182;-68
2022/09/07 10:17:13;;;;;;;;;;;;;;;21.29;78.70;97328.53;585875;241;65119;-67
2022/09/07 10:19:42;;;;;;;;;;;;;;;21.29;79.05;97331.20;584682;241;65164;-67
2022/09/07 10:22:28;;;;;;;;;;;;;;;21.30;78.90;97331.99;588837;241;64959;-67
2022/09/07 10:24:55;;;;;;;;;;;;;;;21.30;78.67;97326.65;588898;241;67275;-71
2022/09/07 10:27:33;;;;;;;;;;;;;;;21.30;78.63;97318.63;588886;241;67036;-69
2022/09/07 10:30:01;;;;;;;;;;;;;;;21.31;78.32;97317.58;588880;241;62852;-69
2022/09/07 10:32:31;;;;;;;;;;;;;;;21.30;78.51;97307.94;586699;241;64948;-69
2022/09/07 10:35:06;;;;;;;;;;;;;;;21.31;78.92;97312.23;585327;237;64904;-69
2022/09/07 10:37:35;;;;;;;;;;;;;;;21.30;79.17;97310.61;587155;241;63162;-69
2022/09/07 10:40:20;;;;;;;;;;;;;;;21.31;79.26;97314.91;584605;241;65347;-69
2022/09/07 10:42:49;;;;;;;;;;;;;;;21.31;79.39;97314.08;588082;241;65420;-68
2022/09/07 10:45:18;;;;;;;;;;;;;;;21.31;79.47;97312.23;588808;239;65305;-69
2022/09/07 10:47:56;;;;;;;;;;;;;;;21.30;79.55;97313.28;588867;241;67453;-69
2022/09/07 10:50:32;;;;;;;;;;;;;;;21.32;79.58;97313.03;588897;241;64978;-69
2022/09/07 10:53:02;;;;;;;;;;;;;;;21.31;79.66;97298.04;588876;241;65120;-71
2022/09/07 10:55:34;;;;;;;;;;;;;;;21.30;79.67;97302.59;588851;241;67246;-68
2022/09/07 10:58:12;;;;;;;;;;;;;;;21.32;79.71;97296.99;589005;241;67054;-68
2022/09/07 11:00:44;;;;;;;;;;;;;;;21.32;79.78;97289.77;587981;241;65150;-67
2022/09/07 11:03:13;;;;;;;;;;;;;;;21.31;79.79;97288.17;580366;241;66927;-68
2022/09/07 11:05:48;;;;;;;;;;;;;;;21.32;79.88;97288.97;588913;241;65756;-68
2022/09/07 11:08:17;;;;;;;;;;;;;;;21.32;79.91;97299.66;588670;239;65076;-67
2022/09/07 11:10:46;;;;;;;;;;;;;;;21.31;79.93;97285.50;588862;241;65314;-68
2022/09/07 11:13:18;;;;;;;;;;;;;;;21.32;79.96;97284.42;588827;239;65024;-66
2022/09/07 11:15:49;;;;;;;;;;;;;;;21.32;79.97;97297.79;588887;241;63000;-69
2022/09/07 11:18:19;;;;;;;;;;;;;;;21.33;80.06;97296.71;588513;241;67198;-68
2022/09/07 11:20:53;;;;;;;;;;;;;;;21.33;80.06;97290.56;588860;239;67080;-66
2022/09/07 11:23:24;;;;;;;;;;;;;;;21.32;80.09;97292.45;588817;239;65092;-68
2022/09/07 11:26:06;;;;;;;;;;;;;;;21.32;80.12;97284.42;588870;241;64719;-69
2022/09/07 11:28:47;;;;;;;;;;;;;;;21.32;80.12;97284.42;588895;241;66768;-69
2022/09/07 11:31:22;;;;;;;;;;;;;;;21.32;80.16;97279.08;588856;237;65311;-66
2022/09/07 11:33:53;;;;;;;;;;;;;;;21.36;75.52;97274.81;588840;241;64844;-68
2022/09/07 11:36:22;;;;;;;;;;;;;;;21.40;77.92;97275.11;589301;239;66782;-69
2022/09/07 11:39:00;;;;;;;;;;;;;;;21.38;78.32;97270.02;589416;239;63004;-68
2022/09/07 11:41:29;;;;;;;;;;;;;;;21.40;78.58;97267.09;589462;239;64790;-69
2022/09/07 11:43:58;;;;;;;;;;;;;;;21.40;78.63;97267.88;589289;239;67033;-69
2022/09/07 11:46:45;;;;;;;;;;;;;;;21.40;78.59;97254.52;588802;239;65066;-68
2022/09/07 11:49:15;;;;;;;;;;;;;;;21.42;78.50;97256.94;586046;239;66994;-69
2022/09/07 11:51:44;;;;;;;;;;;;;;;21.42;78.57;97260.41;585642;242;66823;-67
2022/09/07 11:54:29;;;;;;;;;;;;;;;21.43;78.70;97258.53;586014;242;65164;-68
2022/09/07 11:56:58;;;;;;;;;;;;;;;21.43;78.55;97253.98;586022;242;67354;-67
2022/09/07 11:59:34;;;;;;;;;;;;;;;21.43;78.48;97251.30;585884;242;67353;-69
2022/09/07 12:02:03;;;;;;;;;;;;;;;21.44;78.38;97249.42;586004;242;65104;-69
2022/09/07 12:04:31;;;;;;;;;;;;;;;21.44;78.39;97247.58;585709;242;67590;-68
2022/09/07 12:07:05;;;;;;;;;;;;;;;21.45;78.20;97251.05;585762;242;46997;-68
2022/09/07 12:09:43;;;;;;;;;;;;;;;21.44;78.11;97244.91;585376;242;65078;-68
2022/09/07 12:12:29;;;;;;;;;;;;;;;21.45;77.98;97233.13;585885;242;64931;-68
2022/09/07 12:14:59;;;;;;;;;;;;;;;21.44;77.85;97239.55;591906;239;65073;-68
2022/09/07 12:17:28;;;;;;;;;;;;;;;21.46;77.84;97242.74;592438;239;62987;-68
2022/09/07 12:20:06;;;;;;;;;;;;;;;21.45;77.73;97235.80;592171;239;66945;-68
2022/09/07 12:22:34;;;;;;;;;;;;;;;21.45;77.72;97246.50;592309;239;67050;-69
2022/09/07 12:25:09;;;;;;;;;;;;;;;21.46;77.58;97245.41;592478;239;64906;-68
2022/09/07 12:27:37;;;;;;;;;;;;;;;21.46;77.44;97242.74;587261;239;65327;-69
2022/09/07 12:30:07;;;;;;;;;;;;;;;21.46;77.39;97241.95;592400;239;66818;-69
2022/09/07 12:32:56;;;;;;;;;;;;;;;21.47;77.34;97249.71;592408;239;63020;-69
2022/09/07 12:35:31;;;;;;;;;;;;;;;21.47;77.23;97238.19;591276;239;65093;-70
2022/09/07 12:38:00;;;;;;;;;;;;;;;21.46;77.22;97237.39;588247;241;64909;-65
2022/09/07 12:40:29;;;;;;;;;;;;;;;21.47;77.16;97236.34;588900;241;63024;-67
2022/09/07 12:43:16;;;;;;;;;;;;;;;21.47;77.52;97241.69;588963;241;67434;-68
2022/09/07 12:45:48;;;;;;;;;;;;;;;21.48;77.30;97237.14;588876;241;65091;-68
2022/09/07 12:48:18;;;;;;;;;;;;;;;21.48;77.45;97234.47;588889;241;65255;-68
2022/09/07 12:51:03;;;;;;;;;;;;;;;21.47;77.57;97233.67;588866;241;67279;-68
2022/09/07 12:53:38;;;;;;;;;;;;;;;21.48;77.60;97232.59;588890;241;65123;-69
2022/09/07 12:56:25;;;;;;;;;;;;;;;21.48;77.57;97229.12;588898;241;65288;-67
2022/09/07 12:58:57;;;;;;;;;;;;;;;21.47;77.68;97233.67;588836;239;65061;-68
2022/09/07 13:01:29;;;;;;;;;;;;;;;21.48;77.61;97226.44;588794;239;67039;-68
2022/09/07 13:04:01;;;;;;;;;;;;;;;21.49;77.68;97233.38;588907;241;65245;-68
2022/09/07 13:06:33;;;;;;;;;;;;;;;21.48;77.63;97231.80;588904;241;67288;-68
2022/09/07 13:09:21;;;;;;;;;;;;;;;21.48;77.50;97229.91;588969;241;48518;-68
2022/09/07 13:11:48;;;;;;;;;;;;;;;21.49;77.62;97225.36;588913;241;65451;-68
2022/09/07 13:14:17;;;;;;;;;;;;;;;21.48;77.62;97221.89;588885;241;65055;-68